Time;durP1;ratioP1;P1;durP2;ratioP2;P2;SDS_P1;SDS_P2;PMS_P1;PMS_P2;Temp;Humidity;BMP_temperature;BMP_pressure;BME280_temperature;BME280_humidity;BME280_pressure;Samples;Min_cycle;Max_cycle;Signal;HPM_P1;HPM_P2
2023/07/01 00:02:17;;;;;;;10.18;3.58;;;17.30;99.90;;;;;;5019712;28;20053;-55
2023/07/01 00:04:43;;;;;;;10.13;3.30;;;17.20;99.90;;;;;;5027138;28;20057;-55
2023/07/01 00:07:08;;;;;;;11.52;4.13;;;17.00;99.90;;;;;;5007698;28;20372;-57
2023/07/01 00:09:34;;;;;;;8.48;3.55;;;17.00;99.90;;;;;;5016992;28;20467;-57
2023/07/01 00:12:00;;;;;;;7.32;3.85;;;16.90;99.90;;;;;;5029151;28;20283;-59
2023/07/01 00:14:29;;;;;;;11.65;4.30;;;16.90;99.90;;;;;;5028173;28;20041;-59
2023/07/01 00:16:54;;;;;;;8.50;3.78;;;16.80;99.90;;;;;;5020073;28;20167;-57
2023/07/01 00:19:20;;;;;;;6.78;3.40;;;16.80;99.90;;;;;;5043658;28;20076;-58
2023/07/01 00:21:46;;;;;;;8.02;3.70;;;16.70;99.90;;;;;;5022084;28;20037;-57
2023/07/01 00:24:12;;;;;;;12.70;4.70;;;16.70;99.90;;;;;;5027824;28;20049;-58
2023/07/01 00:26:37;;;;;;;12.73;3.78;;;16.60;99.90;;;;;;5025894;28;20040;-59
2023/07/01 00:29:03;;;;;;;11.02;3.78;;;16.60;99.90;;;;;;5032540;28;20128;-58
2023/07/01 00:31:29;;;;;;;11.88;4.28;;;16.60;99.90;;;;;;5027588;28;20122;-59
2023/07/01 00:33:54;;;;;;;10.48;3.60;;;16.60;99.90;;;;;;5011974;28;20319;-58
2023/07/01 00:36:20;;;;;;;10.15;3.95;;;16.60;99.90;;;;;;5025172;28;20349;-57
2023/07/01 00:38:46;;;;;;;19.13;5.55;;;16.50;99.90;;;;;;5027018;28;20037;-57
2023/07/01 00:41:12;;;;;;;10.70;3.97;;;16.50;99.90;;;;;;5023869;28;20053;-57
2023/07/01 00:43:37;;;;;;;12.32;4.43;;;16.50;99.90;;;;;;5016206;28;20488;-57
2023/07/01 00:46:04;;;;;;;8.40;4.35;;;16.50;99.90;;;;;;5031179;28;20037;-58
2023/07/01 00:48:30;;;;;;;9.77;4.00;;;16.50;99.90;;;;;;5029794;28;20076;-58
2023/07/01 00:50:56;;;;;;;8.40;4.22;;;16.50;99.90;;;;;;5030791;28;20037;-58
2023/07/01 00:53:22;;;;;;;10.55;4.65;;;16.50;99.90;;;;;;5024912;28;20140;-58
2023/07/01 00:55:48;;;;;;;9.95;4.60;;;16.50;99.90;;;;;;5012519;28;20123;-59
2023/07/01 00:58:14;;;;;;;13.02;4.88;;;16.50;99.90;;;;;;5022745;28;20124;-58
2023/07/01 01:00:40;;;;;;;8.98;5.00;;;16.50;99.90;;;;;;5015438;28;20040;-56
2023/07/01 01:03:22;;;;;;;10.27;5.20;;;16.50;99.90;;;;;;5031136;28;20034;-57
2023/07/01 01:06:14;;;;;;;8.10;5.07;;;16.40;99.90;;;;;;5028518;28;20120;-57
2023/07/01 01:09:03;;;;;;;9.95;4.78;;;16.40;99.90;;;;;;5046679;28;20107;-57
2023/07/01 01:11:36;;;;;;;9.27;5.22;;;16.30;99.90;;;;;;5012852;28;20049;-58
2023/07/01 01:14:04;;;;;;;8.27;5.20;;;16.30;99.90;;;;;;5027173;28;20048;-58
2023/07/01 01:16:31;;;;;;;10.23;5.60;;;16.30;99.90;;;;;;5038360;28;20122;-58
2023/07/01 01:18:58;;;;;;;11.82;5.70;;;16.30;99.90;;;;;;5032233;28;20523;-58
2023/07/01 01:21:25;;;;;;;8.25;4.82;;;16.30;99.90;;;;;;5011464;28;20116;-58
2023/07/01 01:24:05;;;;;;;10.20;5.75;;;16.30;99.90;;;;;;5023164;28;20045;-58
2023/07/01 01:26:39;;;;;;;9.40;5.15;;;16.30;99.90;;;;;;5031634;28;20037;-58
2023/07/01 01:29:06;;;;;;;11.45;5.80;;;16.30;99.90;;;;;;5029523;28;20095;-58
2023/07/01 01:31:33;;;;;;;9.20;6.93;;;16.30;99.90;;;;;;5022640;28;20049;-57
2023/07/01 01:33:59;;;;;;;8.07;5.65;;;16.30;99.90;;;;;;5013244;28;20057;-57
2023/07/01 01:36:50;;;;;;;8.60;6.40;;;16.30;99.90;;;;;;5050509;28;20041;-58
2023/07/01 01:39:20;;;;;;;9.52;6.10;;;16.30;99.90;;;;;;5017544;28;20063;-58
2023/07/01 01:41:51;;;;;;;8.32;5.72;;;16.30;99.90;;;;;;5015826;28;20075;-59
2023/07/01 01:44:27;;;;;;;11.15;5.97;;;16.30;99.90;;;;;;5048135;28;20451;-58
2023/07/01 01:46:55;;;;;;;8.27;5.70;;;16.30;99.90;;;;;;5028037;28;20123;-58
2023/07/01 01:49:21;;;;;;;12.30;5.93;;;16.30;99.90;;;;;;5045306;28;20047;-58
2023/07/01 01:51:48;;;;;;;9.90;5.63;;;16.30;99.90;;;;;;5027162;28;20399;-58
2023/07/01 01:54:14;;;;;;;7.97;5.25;;;16.30;99.90;;;;;;5030607;28;20060;-57
2023/07/01 01:56:41;;;;;;;6.95;5.20;;;16.30;99.90;;;;;;5025226;28;20257;-58
2023/07/01 01:59:07;;;;;;;11.35;5.57;;;16.30;99.90;;;;;;5026427;28;20044;-57
2023/07/01 02:01:35;;;;;;;7.03;5.40;;;16.30;99.90;;;;;;5025340;28;20052;-57
2023/07/01 02:04:01;;;;;;;9.20;5.53;;;16.30;99.90;;;;;;5047710;28;20028;-59
2023/07/01 02:06:26;;;;;;;9.45;6.22;;;16.30;99.90;;;;;;5009748;28;20484;-57
2023/07/01 02:08:52;;;;;;;14.73;5.72;;;16.30;99.90;;;;;;5030611;28;20522;-56
2023/07/01 02:11:18;;;;;;;11.80;6.03;;;16.30;99.90;;;;;;5022469;28;20037;-57
2023/07/01 02:13:44;;;;;;;7.70;5.40;;;16.30;99.90;;;;;;5024524;28;20454;-57
2023/07/01 02:16:09;;;;;;;8.10;5.35;;;16.30;99.90;;;;;;5010585;28;20037;-57
2023/07/01 02:18:35;;;;;;;11.02;5.75;;;16.30;99.90;;;;;;5043041;28;20407;-57
2023/07/01 02:21:01;;;;;;;8.70;5.97;;;16.30;99.90;;;;;;5027447;28;20098;-57
2023/07/01 02:23:29;;;;;;;11.18;6.75;;;16.30;99.90;;;;;;5020329;28;20048;-56
2023/07/01 02:25:55;;;;;;;9.75;6.43;;;16.30;99.90;;;;;;5023413;28;20037;-57
2023/07/01 02:28:21;;;;;;;14.27;5.70;;;16.30;99.90;;;;;;5021221;28;20059;-58
2023/07/01 02:30:46;;;;;;;13.13;5.95;;;16.30;99.90;;;;;;5036100;28;20051;-58
2023/07/01 02:33:12;;;;;;;10.82;6.80;;;16.30;99.90;;;;;;5024467;28;20217;-58
2023/07/01 02:35:38;;;;;;;6.50;5.65;;;16.30;99.90;;;;;;5022220;28;20075;-57
2023/07/01 02:38:03;;;;;;;9.80;6.50;;;16.30;99.90;;;;;;5020455;28;20045;-58
2023/07/01 02:40:29;;;;;;;11.13;6.75;;;16.30;99.90;;;;;;5025512;28;20048;-58
2023/07/01 02:42:55;;;;;;;10.40;7.00;;;16.30;99.90;;;;;;5003877;28;20097;-57
2023/07/01 02:45:21;;;;;;;8.45;7.35;;;16.20;99.90;;;;;;5029002;28;20037;-58
2023/07/01 02:47:46;;;;;;;9.52;7.55;;;16.20;99.90;;;;;;5025571;28;20044;-58
2023/07/01 02:50:12;;;;;;;10.20;7.28;;;16.30;99.90;;;;;;5025903;28;20052;-57
2023/07/01 02:52:38;;;;;;;10.52;8.25;;;16.20;99.90;;;;;;5005409;28;20403;-58
2023/07/01 02:55:04;;;;;;;10.68;8.18;;;16.20;99.90;;;;;;5010604;28;20048;-58
2023/07/01 02:57:30;;;;;;;11.63;7.85;;;16.20;99.90;;;;;;5012009;28;20057;-57
2023/07/01 02:59:56;;;;;;;13.95;7.32;;;16.20;99.90;;;;;;5033625;28;20048;-57
2023/07/01 03:02:25;;;;;;;9.88;7.22;;;16.20;99.90;;;;;;5047625;28;20041;-57
2023/07/01 03:04:50;;;;;;;11.43;8.02;;;16.20;99.90;;;;;;5027325;28;20072;-57
2023/07/01 03:07:19;;;;;;;11.20;8.10;;;16.20;99.90;;;;;;5030577;28;20417;-57
2023/07/01 03:09:45;;;;;;;13.30;9.00;;;16.20;99.90;;;;;;5029719;28;20067;-57
2023/07/01 03:12:11;;;;;;;9.90;8.55;;;16.20;99.90;;;;;;5013104;28;20550;-57
2023/07/01 03:14:37;;;;;;;14.73;8.88;;;16.20;99.90;;;;;;5028130;28;20044;-57
2023/07/01 03:17:04;;;;;;;11.00;8.93;;;16.20;99.90;;;;;;5031981;28;20175;-55
2023/07/01 03:19:32;;;;;;;14.55;9.50;;;16.20;99.90;;;;;;5029703;28;20492;-56
2023/07/01 03:22:00;;;;;;;12.93;8.43;;;16.20;99.90;;;;;;5027853;28;20116;-56
2023/07/01 03:24:33;;;;;;;10.73;9.27;;;16.10;99.90;;;;;;5029301;28;20036;-56
2023/07/01 03:27:01;;;;;;;15.23;10.05;;;16.20;99.90;;;;;;5014485;28;20037;-56
2023/07/01 03:29:27;;;;;;;12.07;9.05;;;16.20;99.90;;;;;;5013176;28;20132;-56
2023/07/01 03:31:52;;;;;;;14.20;8.68;;;16.10;99.90;;;;;;5013361;28;20119;-58
2023/07/01 03:34:22;;;;;;;12.73;8.88;;;16.10;99.90;;;;;;5042608;28;20060;-57
2023/07/01 03:36:48;;;;;;;13.95;9.85;;;16.20;99.90;;;;;;5016858;28;20045;-58
2023/07/01 03:39:16;;;;;;;16.35;10.57;;;16.20;99.90;;;;;;5020277;28;20496;-57
2023/07/01 03:41:41;;;;;;;17.30;10.93;;;16.20;99.90;;;;;;5024048;28;20045;-58
2023/07/01 03:44:07;;;;;;;17.40;11.35;;;16.20;99.90;;;;;;5024242;28;20052;-57
2023/07/01 03:46:33;;;;;;;14.77;11.93;;;16.20;99.90;;;;;;5037040;28;20120;-56
2023/07/01 03:48:59;;;;;;;16.40;10.95;;;16.20;99.90;;;;;;5019660;28;20044;-58
2023/07/01 03:51:25;;;;;;;14.88;12.13;;;16.20;99.90;;;;;;5016527;28;20045;-57
2023/07/01 03:53:51;;;;;;;17.80;12.25;;;16.10;99.90;;;;;;4988285;28;20051;-55
2023/07/01 03:56:17;;;;;;;16.08;11.43;;;16.10;99.90;;;;;;5018792;28;20041;-57
2023/07/01 03:58:43;;;;;;;16.75;13.07;;;16.10;99.90;;;;;;5018246;28;20393;-57
2023/07/01 04:01:08;;;;;;;17.33;12.43;;;16.10;99.90;;;;;;5020740;28;20423;-57
2023/07/01 04:03:34;;;;;;;17.42;13.15;;;16.10;99.90;;;;;;5016020;28;20460;-57
2023/07/01 04:06:00;;;;;;;15.90;12.85;;;16.10;99.90;;;;;;5003803;28;20044;-57
2023/07/01 04:08:26;;;;;;;13.15;11.75;;;16.10;99.90;;;;;;5020210;28;20492;-56
2023/07/01 04:10:51;;;;;;;15.02;12.27;;;16.10;99.90;;;;;;5035089;28;20117;-56
2023/07/01 04:13:17;;;;;;;15.02;12.25;;;16.10;99.90;;;;;;5020712;28;20418;-56
2023/07/01 04:15:43;;;;;;;15.00;13.18;;;16.10;99.90;;;;;;5002729;28;20076;-57
2023/07/01 04:18:09;;;;;;;14.68;13.07;;;16.10;99.90;;;;;;5037516;28;20050;-57
2023/07/01 04:20:35;;;;;;;14.02;11.77;;;16.10;99.90;;;;;;5019307;28;20040;-56
2023/07/01 04:23:00;;;;;;;14.55;12.23;;;16.10;99.90;;;;;;5019883;28;20119;-56
2023/07/01 04:25:26;;;;;;;12.77;10.95;;;16.10;99.90;;;;;;5018986;28;20179;-57
2023/07/01 04:27:54;;;;;;;14.45;11.80;;;16.10;99.90;;;;;;5003593;28;20041;-57
2023/07/01 04:30:20;;;;;;;13.10;11.70;;;16.10;99.90;;;;;;5023352;28;20252;-56
2023/07/01 04:32:46;;;;;;;15.45;12.55;;;16.10;99.90;;;;;;4998126;28;20041;-56
2023/07/01 04:35:12;;;;;;;13.18;11.73;;;16.10;99.90;;;;;;5016509;28;20044;-55
2023/07/01 04:37:40;;;;;;;13.88;11.55;;;16.10;99.90;;;;;;5023040;28;20045;-57
2023/07/01 04:40:06;;;;;;;13.95;11.10;;;16.10;99.90;;;;;;5026723;28;20086;-56
2023/07/01 04:42:34;;;;;;;13.05;11.63;;;16.10;99.90;;;;;;5027862;28;20381;-57
2023/07/01 04:45:00;;;;;;;12.98;11.35;;;16.10;99.90;;;;;;5024168;28;20087;-57
2023/07/01 04:47:27;;;;;;;12.63;11.32;;;16.10;99.90;;;;;;5026963;28;20068;-56
2023/07/01 04:49:55;;;;;;;12.15;10.88;;;16.10;99.90;;;;;;5026861;28;20061;-56
2023/07/01 04:52:22;;;;;;;12.50;10.70;;;16.10;99.90;;;;;;5029555;28;20548;-57
2023/07/01 04:54:49;;;;;;;14.65;11.20;;;16.10;99.90;;;;;;5029313;28;20403;-56
2023/07/01 04:57:15;;;;;;;15.05;11.23;;;16.10;99.90;;;;;;5028067;28;20048;-57
2023/07/01 04:59:41;;;;;;;12.65;10.30;;;16.20;99.90;;;;;;5028455;28;20116;-57
2023/07/01 05:02:07;;;;;;;12.35;10.18;;;16.20;99.90;;;;;;5020540;28;20037;-57
2023/07/01 05:04:32;;;;;;;14.88;11.68;;;16.20;99.90;;;;;;5008952;28;20431;-57
2023/07/01 05:06:58;;;;;;;11.60;10.40;;;16.30;99.90;;;;;;5030746;28;20037;-57
2023/07/01 05:09:24;;;;;;;11.43;9.80;;;16.30;99.90;;;;;;5024747;28;20044;-56
2023/07/01 05:11:49;;;;;;;11.23;10.00;;;16.30;99.90;;;;;;5011721;28;20041;-56
2023/07/01 05:14:15;;;;;;;11.10;9.80;;;16.30;99.90;;;;;;5021919;28;20047;-57
2023/07/01 05:16:41;;;;;;;10.70;9.60;;;16.30;99.90;;;;;;5012254;28;20053;-57
2023/07/01 05:19:06;;;;;;;11.30;10.20;;;16.30;99.90;;;;;;5006297;28;20496;-57
2023/07/01 05:21:33;;;;;;;11.18;10.02;;;16.40;99.90;;;;;;5026210;28;20109;-57
2023/07/01 05:23:59;;;;;;;11.23;9.75;;;16.40;99.90;;;;;;5026871;28;20106;-56
2023/07/01 05:26:24;;;;;;;14.05;11.02;;;16.40;99.90;;;;;;5029200;28;20510;-56
2023/07/01 05:28:50;;;;;;;10.20;9.20;;;16.50;99.90;;;;;;5001890;28;20048;-57
2023/07/01 05:31:16;;;;;;;9.75;8.75;;;16.50;99.90;;;;;;5029426;28;20053;-57
2023/07/01 05:33:47;;;;;;;9.57;8.45;;;16.60;99.90;;;;;;5050942;28;20039;-57
2023/07/01 05:36:13;;;;;;;10.95;8.25;;;16.60;99.90;;;;;;5005368;28;20041;-56
2023/07/01 05:38:42;;;;;;;8.50;7.70;;;16.70;99.90;;;;;;5030055;28;20041;-57
2023/07/01 05:41:07;;;;;;;7.97;6.80;;;16.70;99.90;;;;;;5024878;28;20663;-57
2023/07/01 05:43:33;;;;;;;7.82;7.03;;;16.90;99.90;;;;;;5032025;28;20135;-57
2023/07/01 05:45:59;;;;;;;9.68;7.55;;;16.90;99.90;;;;;;5031094;28;20068;-55
2023/07/01 05:48:25;;;;;;;7.65;6.95;;;16.90;99.90;;;;;;5033051;28;20106;-56
2023/07/01 05:50:50;;;;;;;8.40;6.55;;;17.00;99.90;;;;;;5029711;28;20079;-56
2023/07/01 05:53:16;;;;;;;7.32;6.63;;;17.00;99.90;;;;;;5026557;28;20124;-57
2023/07/01 05:55:44;;;;;;;11.10;6.45;;;17.10;99.90;;;;;;5018542;28;20044;-56
2023/07/01 05:58:10;;;;;;;7.07;6.38;;;17.00;99.90;;;;;;5028657;28;20504;-56
2023/07/01 06:00:36;;;;;;;7.60;6.90;;;17.10;99.90;;;;;;5041994;28;20034;-57
2023/07/01 06:03:01;;;;;;;7.75;6.72;;;17.10;99.90;;;;;;5030025;28;20044;-56
2023/07/01 06:05:27;;;;;;;6.15;5.55;;;17.10;99.90;;;;;;5031098;28;20041;-55
2023/07/01 06:07:53;;;;;;;7.82;6.15;;;17.10;99.90;;;;;;5030255;28;20716;-56
2023/07/01 06:10:18;;;;;;;9.80;5.75;;;17.20;99.90;;;;;;5026653;28;20049;-57
2023/07/01 06:12:44;;;;;;;5.93;5.32;;;17.10;99.90;;;;;;5023436;28;20204;-56
2023/07/01 06:15:10;;;;;;;6.32;5.13;;;17.10;99.90;;;;;;5022180;28;20404;-57
2023/07/01 06:17:36;;;;;;;5.85;4.82;;;17.20;99.90;;;;;;5026828;28;20047;-57
2023/07/01 06:20:01;;;;;;;5.60;4.72;;;17.20;99.90;;;;;;5027306;28;20472;-57
2023/07/01 06:22:27;;;;;;;5.97;4.55;;;17.20;99.90;;;;;;5023786;28;20033;-56
2023/07/01 06:24:53;;;;;;;4.78;4.38;;;17.20;99.90;;;;;;5014307;28;20043;-56
2023/07/01 06:27:19;;;;;;;5.50;4.30;;;17.20;99.90;;;;;;5042875;28;20053;-57
2023/07/01 06:29:44;;;;;;;4.30;3.90;;;17.30;99.90;;;;;;5013272;28;20135;-56
2023/07/01 06:32:10;;;;;;;4.75;4.20;;;17.30;99.90;;;;;;5044335;28;20052;-57
2023/07/01 06:34:36;;;;;;;5.65;3.67;;;17.30;99.90;;;;;;5031944;28;20033;-57
2023/07/01 06:37:02;;;;;;;4.78;3.58;;;17.30;99.90;;;;;;5023739;28;20041;-58
2023/07/01 06:39:28;;;;;;;3.97;3.58;;;17.30;99.90;;;;;;5009536;28;20063;-58
2023/07/01 06:41:53;;;;;;;4.53;3.75;;;17.40;99.90;;;;;;5011090;28;20374;-56
2023/07/01 06:44:19;;;;;;;4.10;3.53;;;17.40;99.90;;;;;;5028287;28;20503;-58
2023/07/01 06:46:46;;;;;;;3.75;3.33;;;17.40;99.90;;;;;;5026785;28;20155;-58
2023/07/01 06:49:11;;;;;;;3.42;3.13;;;17.40;99.90;;;;;;5026970;28;20102;-58
2023/07/01 06:51:37;;;;;;;4.93;3.38;;;17.50;99.90;;;;;;5007567;28;20519;-57
2023/07/01 06:54:03;;;;;;;4.85;3.30;;;17.50;99.90;;;;;;5032868;28;20036;-57
2023/07/01 06:56:28;;;;;;;4.10;3.70;;;17.50;99.90;;;;;;5038061;28;20075;-58
2023/07/01 06:58:54;;;;;;;3.42;3.00;;;17.50;99.90;;;;;;5029351;28;20053;-57
2023/07/01 07:01:20;;;;;;;3.78;2.83;;;17.50;99.90;;;;;;5047605;28;20029;-57
2023/07/01 07:03:45;;;;;;;3.40;2.65;;;17.60;99.90;;;;;;5029277;28;20040;-57
2023/07/01 07:06:11;;;;;;;3.63;2.50;;;17.60;99.90;;;;;;5029366;28;20106;-55
2023/07/01 07:08:37;;;;;;;3.00;2.42;;;17.60;99.90;;;;;;5029779;28;20037;-58
2023/07/01 07:11:02;;;;;;;3.25;2.40;;;17.60;99.90;;;;;;5012560;28;20083;-63
2023/07/01 07:13:28;;;;;;;2.20;2.00;;;17.70;99.90;;;;;;5025759;28;20041;-58
2023/07/01 07:15:54;;;;;;;2.40;2.00;;;17.70;99.90;;;;;;5032534;28;20052;-56
2023/07/01 07:18:20;;;;;;;3.28;2.15;;;17.70;99.90;;;;;;5016293;28;20045;-57
2023/07/01 07:20:45;;;;;;;2.20;1.88;;;17.70;99.90;;;;;;5029616;28;20491;-57
2023/07/01 07:23:14;;;;;;;4.57;2.20;;;17.80;99.90;;;;;;5023291;28;20369;-57
2023/07/01 07:25:40;;;;;;;2.55;2.28;;;17.70;99.90;;;;;;5027624;28;20372;-57
2023/07/01 07:28:06;;;;;;;2.63;2.03;;;17.80;99.90;;;;;;5030047;28;20041;-57
2023/07/01 07:30:31;;;;;;;3.05;1.80;;;17.80;99.90;;;;;;5026961;28;20063;-57
2023/07/01 07:32:57;;;;;;;2.58;1.70;;;17.80;99.90;;;;;;5027716;28;20444;-57
2023/07/01 07:35:23;;;;;;;2.03;1.83;;;17.80;99.90;;;;;;5006932;28;20045;-57
2023/07/01 07:37:49;;;;;;;3.10;1.70;;;17.90;99.90;;;;;;5013381;28;20041;-57
2023/07/01 07:40:15;;;;;;;1.83;1.27;;;17.90;99.90;;;;;;5026124;28;20072;-57
2023/07/01 07:42:45;;;;;;;1.40;1.20;;;17.90;99.90;;;;;;5017506;28;20134;-56
2023/07/01 07:45:12;;;;;;;1.48;1.20;;;18.00;99.90;;;;;;5028826;28;20182;-57
2023/07/01 07:47:38;;;;;;;2.67;1.20;;;17.90;99.90;;;;;;5029658;28;20847;-58
2023/07/01 07:50:04;;;;;;;1.30;1.00;;;17.90;99.90;;;;;;5009872;28;20087;-56
2023/07/01 07:52:30;;;;;;;1.15;1.02;;;18.00;99.90;;;;;;5028188;28;20072;-57
2023/07/01 07:54:55;;;;;;;2.47;1.13;;;18.00;99.90;;;;;;5019848;28;20137;-58
2023/07/01 07:57:21;;;;;;;1.25;1.15;;;17.90;99.90;;;;;;5030214;28;20045;-57
2023/07/01 07:59:47;;;;;;;2.25;1.40;;;18.00;99.90;;;;;;5027136;28;20048;-58
2023/07/01 08:02:12;;;;;;;1.50;1.30;;;18.00;99.90;;;;;;5012101;28;20043;-56
2023/07/01 08:04:38;;;;;;;1.30;1.20;;;18.00;99.90;;;;;;5023769;28;20071;-57
2023/07/01 08:07:07;;;;;;;1.42;1.10;;;18.00;99.90;;;;;;5023459;28;20036;-57
2023/07/01 08:09:34;;;;;;;1.83;1.50;;;18.00;99.90;;;;;;5022729;28;20051;-58
2023/07/01 08:12:01;;;;;;;1.50;1.30;;;18.10;99.90;;;;;;5022696;28;20044;-57
2023/07/01 08:14:31;;;;;;;1.30;1.20;;;18.10;99.90;;;;;;5029443;28;20079;-56
2023/07/01 08:16:58;;;;;;;2.60;1.20;;;18.10;99.90;;;;;;5028115;28;20040;-56
2023/07/01 08:19:24;;;;;;;2.13;1.25;;;18.10;99.90;;;;;;5025313;28;20373;-57
2023/07/01 08:21:50;;;;;;;2.92;1.30;;;18.20;99.90;;;;;;5044000;28;20082;-57
2023/07/01 08:24:15;;;;;;;2.85;1.30;;;18.20;99.90;;;;;;5011312;28;20128;-57
2023/07/01 08:26:42;;;;;;;2.45;1.23;;;18.20;99.90;;;;;;5028108;28;20625;-57
2023/07/01 08:29:09;;;;;;;2.42;1.42;;;18.20;99.90;;;;;;5008649;28;20049;-58
2023/07/01 08:31:35;;;;;;;1.75;1.40;;;18.20;99.90;;;;;;5012063;28;20399;-58
2023/07/01 08:34:02;;;;;;;3.30;1.10;;;18.20;99.90;;;;;;5007044;28;20103;-57
2023/07/01 08:36:31;;;;;;;2.47;1.08;;;18.20;99.90;;;;;;5029673;28;20561;-56
2023/07/01 08:38:56;;;;;;;2.40;1.10;;;18.20;99.90;;;;;;5029074;28;20041;-56
2023/07/01 08:41:25;;;;;;;1.63;0.93;;;18.20;99.90;;;;;;5026888;28;20127;-57
2023/07/01 08:43:52;;;;;;;1.45;0.88;;;18.10;99.90;;;;;;5026081;28;20074;-56
2023/07/01 08:46:19;;;;;;;1.60;1.00;;;18.10;99.90;;;;;;5019818;28;20195;-57
2023/07/01 08:48:46;;;;;;;2.15;1.20;;;18.10;99.90;;;;;;5029046;28;20041;-57
2023/07/01 08:51:37;;;;;;;5.80;1.50;;;18.10;99.90;;;;;;5045030;28;20559;-57
2023/07/01 08:54:04;;;;;;;7.82;2.38;;;18.20;99.90;;;;;;5027127;28;20396;-56
2023/07/01 08:56:30;;;;;;;3.60;2.60;;;18.20;99.90;;;;;;5028816;28;20524;-57
2023/07/01 08:58:56;;;;;;;4.93;3.22;;;18.30;99.90;;;;;;5024587;28;20111;-58
2023/07/01 09:01:22;;;;;;;4.88;3.40;;;18.20;99.90;;;;;;5008644;28;20036;-56
2023/07/01 09:03:49;;;;;;;3.88;2.67;;;18.20;99.90;;;;;;5031719;28;20060;-57
2023/07/01 09:06:15;;;;;;;2.97;2.40;;;18.20;99.90;;;;;;5031581;28;20044;-57
2023/07/01 09:08:40;;;;;;;3.42;2.80;;;18.20;99.90;;;;;;5030608;28;20086;-57
2023/07/01 09:11:11;;;;;;;2.60;2.00;;;18.20;99.90;;;;;;5028160;28;20119;-55
2023/07/01 09:13:37;;;;;;;3.65;2.60;;;18.20;99.90;;;;;;5029711;28;20041;-56
2023/07/01 09:16:03;;;;;;;3.28;2.58;;;18.20;99.90;;;;;;5050344;28;20551;-58
2023/07/01 09:18:29;;;;;;;4.65;3.65;;;18.20;99.90;;;;;;5009503;28;20065;-58
2023/07/01 09:20:57;;;;;;;4.68;4.15;;;18.20;99.90;;;;;;5028004;28;20500;-58
2023/07/01 09:23:30;;;;;;;8.52;5.50;;;18.30;99.90;;;;;;5026616;28;20041;-56
2023/07/01 09:26:08;;;;;;;7.93;5.68;;;18.20;99.90;;;;;;5032017;28;20073;-56
2023/07/01 09:28:35;;;;;;;6.68;5.95;;;18.30;99.90;;;;;;5028834;28;20365;-56
2023/07/01 09:31:03;;;;;;;8.38;6.50;;;18.30;99.90;;;;;;5022780;28;20041;-58
2023/07/01 09:33:31;;;;;;;9.15;6.95;;;18.30;99.90;;;;;;5029129;28;20094;-58
2023/07/01 09:36:02;;;;;;;7.47;6.07;;;18.30;99.90;;;;;;5025189;28;20083;-58
2023/07/01 09:38:29;;;;;;;8.30;6.65;;;18.40;99.90;;;;;;5023639;28;20061;-57
2023/07/01 09:40:55;;;;;;;8.77;6.85;;;18.40;99.90;;;;;;5009354;28;20040;-58
2023/07/01 09:43:36;;;;;;;8.85;7.28;;;18.40;99.90;;;;;;5010824;28;20433;-57
2023/07/01 09:46:02;;;;;;;7.75;6.95;;;18.50;99.90;;;;;;5031002;28;20399;-57
2023/07/01 09:48:28;;;;;;;8.80;7.60;;;18.50;99.90;;;;;;5027916;28;20484;-58
2023/07/01 09:51:03;;;;;;;8.30;7.25;;;18.50;99.90;;;;;;5011352;28;20155;-56
2023/07/01 09:53:34;;;;;;;12.00;7.95;;;18.50;99.90;;;;;;5003715;28;20048;-58
2023/07/01 09:56:04;;;;;;;7.35;6.45;;;18.60;99.90;;;;;;5005874;28;20077;-57
2023/07/01 09:58:31;;;;;;;7.72;6.95;;;18.50;99.90;;;;;;5030791;28;20048;-57
2023/07/01 10:00:57;;;;;;;9.20;7.45;;;18.60;99.90;;;;;;5026517;28;20044;-57
2023/07/01 10:03:27;;;;;;;9.25;6.93;;;18.70;99.90;;;;;;5030628;28;20389;-57
2023/07/01 10:05:53;;;;;;;8.07;7.28;;;18.70;99.90;;;;;;5019629;28;20128;-57
2023/07/01 10:08:22;;;;;;;10.65;7.30;;;18.70;99.90;;;;;;5026383;28;20295;-56
2023/07/01 10:10:59;;;;;;;9.40;7.63;;;18.60;99.90;;;;;;5024073;28;20053;-57
2023/07/01 10:13:28;;;;;;;10.65;8.27;;;18.60;99.90;;;;;;5015284;28;20135;-57
2023/07/01 10:15:54;;;;;;;9.73;7.53;;;18.60;99.90;;;;;;5027737;28;20101;-58
2023/07/01 10:18:22;;;;;;;8.20;7.40;;;18.70;99.90;;;;;;5031384;28;20496;-58
2023/07/01 10:20:50;;;;;;;8.85;7.68;;;18.70;99.90;;;;;;5050215;28;20094;-56
2023/07/01 10:23:16;;;;;;;10.43;8.82;;;18.80;99.90;;;;;;5027051;28;20132;-57
2023/07/01 10:25:41;;;;;;;10.27;8.15;;;18.80;99.90;;;;;;5029573;28;20040;-57
2023/07/01 10:28:09;;;;;;;8.85;7.88;;;18.70;99.90;;;;;;5013334;28;20037;-58
2023/07/01 10:30:55;;;;;;;9.38;8.20;;;18.70;99.90;;;;;;5027240;28;20045;-58
2023/07/01 10:33:33;;;;;;;10.00;7.75;;;18.60;99.90;;;;;;5011960;28;20059;-58
2023/07/01 10:36:04;;;;;;;10.27;7.72;;;18.30;99.90;;;;;;5029893;28;20051;-57
2023/07/01 10:38:35;;;;;;;10.07;8.63;;;18.30;99.90;;;;;;5031270;28;20399;-56
2023/07/01 10:41:05;;;;;;;9.90;8.63;;;18.30;99.90;;;;;;5029300;28;20087;-58
2023/07/01 10:43:38;;;;;;;15.90;10.55;;;18.40;99.90;;;;;;5008496;28;20037;-58
2023/07/01 10:46:25;;;;;;;12.27;10.43;;;18.50;99.90;;;;;;5012873;28;20043;-57
2023/07/01 10:49:03;;;;;;;11.65;9.43;;;18.60;99.90;;;;;;5020798;28;20491;-57
2023/07/01 10:51:49;;;;;;;13.00;9.80;;;18.60;99.90;;;;;;5031447;28;20037;-58
2023/07/01 10:54:29;;;;;;;10.48;9.30;;;18.80;99.90;;;;;;5008274;28;20053;-57
2023/07/01 10:57:15;;;;;;;11.43;8.88;;;18.80;99.90;;;;;;5011894;28;20045;-57
2023/07/01 10:59:42;;;;;;;10.23;7.80;;;18.80;99.90;;;;;;5022419;28;20049;-56
2023/07/01 11:02:09;;;;;;;9.00;6.75;;;18.70;99.90;;;;;;4996693;28;20037;-58
2023/07/01 11:04:55;;;;;;;9.40;6.72;;;18.40;99.90;;;;;;5010363;28;20080;-56
2023/07/01 11:07:28;;;;;;;10.07;6.93;;;18.30;99.90;;;;;;5013720;28;20067;-57
2023/07/01 11:09:54;;;;;;;10.55;8.07;;;18.40;99.90;;;;;;5029749;28;20071;-57
2023/07/01 11:12:22;;;;;;;12.10;7.95;;;18.50;99.90;;;;;;5027343;28;20049;-57
2023/07/01 11:14:51;;;;;;;13.45;8.77;;;18.60;99.90;;;;;;5014039;28;20384;-58
2023/07/01 11:17:19;;;;;;;12.38;8.80;;;18.70;99.90;;;;;;5008919;28;20124;-58
2023/07/01 11:19:46;;;;;;;13.23;9.30;;;18.90;99.90;;;;;;5030658;28;20041;-58
2023/07/01 11:22:14;;;;;;;10.68;8.57;;;18.90;99.90;;;;;;5020815;28;20557;-57
2023/07/01 11:24:40;;;;;;;12.57;10.25;;;18.90;99.90;;;;;;5013393;28;20576;-57
2023/07/01 11:27:08;;;;;;;13.65;9.95;;;18.90;99.90;;;;;;5029993;28;20098;-57
2023/07/01 11:29:40;;;;;;;11.57;8.90;;;18.90;99.90;;;;;;5041807;28;20096;-57
2023/07/01 11:32:14;;;;;;;10.73;9.18;;;19.10;99.90;;;;;;5036033;28;20041;-57
2023/07/01 11:34:41;;;;;;;10.48;8.48;;;19.10;99.90;;;;;;5025586;28;20353;-57
2023/07/01 11:37:07;;;;;;;8.48;6.63;;;19.20;99.90;;;;;;5041078;28;20040;-58
2023/07/01 11:39:43;;;;;;;8.85;7.53;;;19.10;99.90;;;;;;5012972;28;20037;-57
2023/07/01 11:42:09;;;;;;;6.95;5.95;;;19.20;99.90;;;;;;5028677;28;20107;-58
2023/07/01 11:44:34;;;;;;;9.43;5.32;;;19.10;99.90;;;;;;5029473;28;20052;-58
2023/07/01 11:47:00;;;;;;;8.07;5.80;;;19.10;99.90;;;;;;5029980;28;20124;-58
2023/07/01 11:49:33;;;;;;;7.72;5.63;;;19.20;99.90;;;;;;5036444;28;20048;-57
2023/07/01 11:52:01;;;;;;;6.82;4.90;;;19.20;99.90;;;;;;5025418;28;20037;-58
2023/07/01 11:54:38;;;;;;;8.73;5.22;;;19.20;99.90;;;;;;5010190;28;20415;-57
2023/07/01 11:57:15;;;;;;;5.38;4.85;;;19.20;99.90;;;;;;5033652;28;20518;-57
2023/07/01 11:59:43;;;;;;;6.38;5.35;;;19.30;99.90;;;;;;5008464;28;20508;-58
2023/07/01 12:02:09;;;;;;;6.45;5.13;;;19.50;99.90;;;;;;5013662;28;20187;-58
2023/07/01 12:04:35;;;;;;;7.47;5.13;;;19.70;99.90;;;;;;5030094;28;20052;-57
2023/07/01 12:07:12;;;;;;;7.20;5.30;;;19.70;99.90;;;;;;5021430;28;20044;-58
2023/07/01 12:09:42;;;;;;;7.22;5.10;;;19.70;99.90;;;;;;5008588;28;20055;-57
2023/07/01 12:12:10;;;;;;;7.07;4.70;;;19.50;99.90;;;;;;5025788;28;20049;-58
2023/07/01 12:14:36;;;;;;;7.22;4.95;;;19.50;99.90;;;;;;5028468;28;20053;-57
2023/07/01 12:17:02;;;;;;;7.03;4.53;;;19.50;99.90;;;;;;5045381;28;20474;-58
2023/07/01 12:19:30;;;;;;;4.75;4.18;;;19.50;99.90;;;;;;5013239;28;20515;-56
2023/07/01 12:21:57;;;;;;;5.63;3.45;;;19.60;99.90;;;;;;5023975;28;20387;-55
2023/07/01 12:24:25;;;;;;;5.32;3.17;;;19.60;99.90;;;;;;5024056;28;20041;-57
2023/07/01 12:26:56;;;;;;;5.43;3.83;;;19.40;99.90;;;;;;5028424;28;20119;-57
2023/07/01 12:29:23;;;;;;;6.50;4.70;;;19.30;99.90;;;;;;4999370;28;20086;-58
2023/07/01 12:31:49;;;;;;;5.78;4.00;;;19.30;99.90;;;;;;5011687;28;20058;-58
2023/07/01 12:34:16;;;;;;;5.95;3.85;;;19.40;99.90;;;;;;5027368;28;20056;-58
2023/07/01 12:36:44;;;;;;;7.30;4.00;;;19.20;99.90;;;;;;5023264;28;20052;-58
2023/07/01 12:39:09;;;;;;;5.93;4.03;;;19.30;99.90;;;;;;5027950;28;20083;-58
2023/07/01 12:41:35;;;;;;;4.88;3.25;;;19.20;99.90;;;;;;5007144;28;20089;-57
2023/07/01 12:44:06;;;;;;;8.15;3.63;;;19.20;99.90;;;;;;5031293;28;20033;-58